Time;durP1;ratioP1;P1;durP2;ratioP2;P2;SDS_P1;SDS_P2;PMS_P1;PMS_P2;Temp;Humidity;BMP_temperature;BMP_pressure;BME280_temperature;BME280_humidity;BME280_pressure;Samples;Min_cycle;Max_cycle;Signal;HPM_P1;HPM_P2
2022/02/15 00:01:43;;;;;;;;;;;8.00;99.90;;;;;;4171541;28;20011;-50
2022/02/15 00:03:45;;;;;;;;;;;8.00;99.90;;;;;;4174980;28;19979;-47
2022/02/15 00:05:47;;;;;;;;;;;7.90;99.90;;;;;;4164637;28;20035;-48
2022/02/15 00:07:49;;;;;;;;;;;7.90;99.90;;;;;;4171424;28;20723;-49
2022/02/15 00:09:50;;;;;;;;;;;8.00;99.90;;;;;;4164980;28;20016;-48
2022/02/15 00:11:53;;;;;;;;;;;8.10;99.90;;;;;;4174363;28;20397;-48
2022/02/15 00:13:55;;;;;;;;;;;8.10;99.90;;;;;;4168510;28;19925;-49
2022/02/15 00:15:56;;;;;;;;;;;8.00;99.90;;;;;;4168441;28;19925;-46
2022/02/15 00:17:59;;;;;;;;;;;8.10;99.90;;;;;;4169020;28;20367;-48
2022/02/15 00:20:01;;;;;;;;;;;8.10;99.90;;;;;;4167878;28;20007;-49
2022/02/15 00:22:03;;;;;;;;;;;8.00;99.90;;;;;;4170904;28;20023;-46
2022/02/15 00:24:05;;;;;;;;;;;8.10;99.90;;;;;;4164656;28;20190;-47
2022/02/15 00:26:07;;;;;;;;;;;8.00;99.90;;;;;;4166858;28;20007;-46
2022/02/15 00:28:09;;;;;;;;;;;8.00;99.90;;;;;;4171909;28;19977;-48
2022/02/15 00:30:11;;;;;;;;;;;8.00;99.90;;;;;;4170824;28;20124;-46
2022/02/15 00:32:13;;;;;;;;;;;8.00;99.90;;;;;;4166605;28;20007;-50
2022/02/15 00:34:14;;;;;;;;;;;8.00;99.90;;;;;;4160022;28;19925;-48
2022/02/15 00:36:16;;;;;;;;;;;7.90;99.90;;;;;;4174121;28;19928;-50
2022/02/15 00:38:18;;;;;;;;;;;7.90;99.90;;;;;;4169971;28;19933;-48
2022/02/15 00:40:20;;;;;;;;;;;7.80;99.90;;;;;;4176342;28;19925;-50
2022/02/15 00:42:22;;;;;;;;;;;7.70;99.90;;;;;;4166828;28;20028;-50
2022/02/15 00:44:26;;;;;;;;;;;7.70;99.90;;;;;;4166799;28;19925;-52
2022/02/15 00:46:28;;;;;;;;;;;7.60;99.90;;;;;;4160692;28;20381;-51
2022/02/15 00:48:30;;;;;;;;;;;7.60;99.90;;;;;;4173815;28;20015;-51
2022/02/15 00:50:32;;;;;;;;;;;7.60;99.90;;;;;;4173093;28;20556;-49
2022/02/15 00:52:34;;;;;;;;;;;7.60;99.90;;;;;;4176737;28;19925;-49
2022/02/15 00:54:37;;;;;;;;;;;7.70;99.90;;;;;;4174754;28;20028;-49
2022/02/15 00:56:39;;;;;;;;;;;7.60;99.90;;;;;;4174605;28;19968;-51
2022/02/15 00:58:41;;;;;;;;;;;7.60;99.90;;;;;;4178517;28;20039;-48
2022/02/15 01:00:43;;;;;;;;;;;7.50;99.90;;;;;;4176879;28;19935;-49
2022/02/15 01:02:45;;;;;;;;;;;7.50;99.90;;;;;;4178092;28;19964;-50
2022/02/15 01:04:47;;;;;;;;;;;7.50;99.90;;;;;;4178928;28;19933;-47
2022/02/15 01:06:49;;;;;;;;;;;7.50;99.90;;;;;;4173439;28;20028;-49
2022/02/15 01:08:51;;;;;;;;;;;7.50;99.90;;;;;;4178677;28;19943;-49
2022/02/15 01:10:53;;;;;;;;;;;7.50;99.90;;;;;;4179445;28;19978;-50
2022/02/15 01:12:55;;;;;;;;;;;7.40;99.90;;;;;;4175547;28;20019;-49
2022/02/15 01:14:58;;;;;;;;;;;7.50;99.90;;;;;;4168389;28;20397;-49
2022/02/15 01:17:00;;;;;;;;;;;7.50;99.90;;;;;;4179410;28;20037;-49
2022/02/15 01:19:02;;;;;;;;;;;7.50;99.90;;;;;;4174091;28;20052;-47
2022/02/15 01:21:04;;;;;;;;;;;7.40;99.90;;;;;;4164897;28;20449;-48
2022/02/15 01:23:06;;;;;;;;;;;7.40;99.90;;;;;;4177664;28;20446;-48
2022/02/15 01:25:08;;;;;;;;;;;7.40;99.90;;;;;;4175186;28;20023;-48
2022/02/15 01:27:10;;;;;;;;;;;7.40;99.90;;;;;;4164309;28;20288;-50
2022/02/15 01:29:11;;;;;;;;;;;7.40;99.90;;;;;;4169482;28;19929;-46
2022/02/15 01:31:13;;;;;;;;;;;7.40;99.90;;;;;;4173910;28;20031;-45
2022/02/15 01:33:15;;;;;;;;;;;7.40;99.90;;;;;;4166749;28;20427;-48
2022/02/15 01:35:17;;;;;;;;;;;7.40;99.90;;;;;;4171209;28;19935;-49
2022/02/15 01:37:19;;;;;;;;;;;7.40;99.90;;;;;;4169303;28;19928;-46
2022/02/15 01:39:21;;;;;;;;;;;7.40;99.90;;;;;;4179881;28;20015;-46
2022/02/15 01:41:23;;;;;;;;;;;7.40;99.90;;;;;;4172802;28;19968;-47
2022/02/15 01:43:25;;;;;;;;;;;7.30;99.90;;;;;;4174557;28;20452;-47
2022/02/15 01:45:27;;;;;;;;;;;7.40;99.90;;;;;;4167730;28;19948;-46
2022/02/15 01:47:29;;;;;;;;;;;7.40;99.90;;;;;;4173257;28;19935;-46
2022/02/15 01:49:31;;;;;;;;;;;7.50;99.90;;;;;;4166868;28;19925;-47
2022/02/15 01:51:33;;;;;;;;;;;7.50;99.90;;;;;;4170186;28;20020;-47
2022/02/15 01:53:35;;;;;;;;;;;7.50;99.90;;;;;;4173601;28;19963;-49
2022/02/15 01:55:37;;;;;;;;;;;7.50;99.90;;;;;;4165756;28;19925;-46
2022/02/15 01:57:39;;;;;;;;;;;7.50;99.90;;;;;;4169047;28;20023;-50
2022/02/15 01:59:41;;;;;;;;;;;7.50;99.90;;;;;;4173828;28;19928;-49
2022/02/15 02:01:43;;;;;;;;;;;7.60;99.90;;;;;;4168482;28;19935;-49
2022/02/15 02:03:45;;;;;;;;;;;7.60;99.90;;;;;;4165416;28;20341;-47
2022/02/15 02:05:49;;;;;;;;;;;7.50;99.90;;;;;;4173293;28;20311;-48
2022/02/15 02:07:51;;;;;;;;;;;7.50;99.90;;;;;;4172216;28;19926;-46
2022/02/15 02:09:54;;;;;;;;;;;7.60;99.90;;;;;;4174151;28;19940;-48
2022/02/15 02:11:56;;;;;;;;;;;7.70;99.90;;;;;;4169058;28;19936;-50
2022/02/15 02:13:58;;;;;;;;;;;7.70;99.90;;;;;;4165223;28;20301;-47
2022/02/15 02:16:00;;;;;;;;;;;7.60;99.90;;;;;;4175679;28;19956;-47
2022/02/15 02:18:02;;;;;;;;;;;7.60;99.90;;;;;;4167976;28;19935;-46
2022/02/15 02:20:05;;;;;;;;;;;7.60;99.90;;;;;;4168391;28;19944;-49
2022/02/15 02:22:07;;;;;;;;;;;7.60;99.90;;;;;;4178465;28;19979;-49
2022/02/15 02:24:09;;;;;;;;;;;7.50;99.90;;;;;;4172587;28;19925;-50
2022/02/15 02:26:11;;;;;;;;;;;7.50;99.90;;;;;;4173564;28;19971;-47
2022/02/15 02:28:13;;;;;;;;;;;7.40;99.90;;;;;;4166966;28;19971;-48
2022/02/15 02:30:15;;;;;;;;;;;7.50;99.90;;;;;;4171648;28;20011;-47
2022/02/15 02:32:26;;;;;;;;;;;7.50;99.90;;;;;;4176912;28;20035;-49
2022/02/15 02:34:28;;;;;;;;;;;7.50;99.90;;;;;;4177116;28;19928;-49
2022/02/15 02:36:40;;;;;;;;;;;7.60;99.90;;;;;;4171988;28;19939;-47
2022/02/15 02:38:42;;;;;;;;;;;7.50;99.90;;;;;;4177316;28;19956;-49
2022/02/15 02:40:44;;;;;;;;;;;7.40;99.90;;;;;;4177380;28;19976;-50
2022/02/15 02:42:46;;;;;;;;;;;7.40;99.90;;;;;;4175122;28;19937;-48
2022/02/15 02:44:48;;;;;;;;;;;7.40;99.90;;;;;;4169548;28;19933;-50
2022/02/15 02:46:50;;;;;;;;;;;7.50;99.90;;;;;;4178203;28;19929;-48
2022/02/15 02:48:52;;;;;;;;;;;7.50;99.90;;;;;;4175088;28;19929;-47
2022/02/15 02:50:54;;;;;;;;;;;7.50;99.90;;;;;;4176050;28;20027;-46
2022/02/15 02:52:57;;;;;;;;;;;7.50;99.90;;;;;;4166047;28;19932;-46
2022/02/15 02:54:59;;;;;;;;;;;7.50;99.90;;;;;;4168433;28;19932;-47
2022/02/15 02:57:01;;;;;;;;;;;7.70;99.90;;;;;;4178730;28;19956;-50
2022/02/15 02:59:03;;;;;;;;;;;7.70;99.90;;;;;;4173982;28;19948;-50
2022/02/15 03:01:05;;;;;;;;;;;7.70;99.90;;;;;;4173987;28;20011;-47
2022/02/15 03:03:07;;;;;;;;;;;7.60;99.90;;;;;;4178624;28;20381;-47
2022/02/15 03:05:09;;;;;;;;;;;7.50;99.90;;;;;;4176367;28;19936;-49
2022/02/15 03:07:11;;;;;;;;;;;7.50;99.90;;;;;;4176186;28;19932;-48
2022/02/15 03:09:13;;;;;;;;;;;7.50;99.90;;;;;;4167060;28;20011;-48
2022/02/15 03:11:15;;;;;;;;;;;7.60;99.90;;;;;;4174466;28;19929;-50
2022/02/15 03:13:17;;;;;;;;;;;7.60;99.90;;;;;;4176603;28;19968;-46
2022/02/15 03:15:19;;;;;;;;;;;7.60;99.90;;;;;;4177747;28;19928;-47
2022/02/15 03:17:21;;;;;;;;;;;7.80;99.90;;;;;;4173921;28;20488;-49
2022/02/15 03:19:22;;;;;;;;;;;7.80;99.90;;;;;;4176174;28;19933;-50
2022/02/15 03:21:24;;;;;;;;;;;7.80;99.90;;;;;;4170494;28;19928;-46
2022/02/15 03:23:26;;;;;;;;;;;7.70;99.90;;;;;;4167189;28;19931;-48
2022/02/15 03:25:28;;;;;;;;;;;7.80;99.90;;;;;;4165535;28;19928;-49
2022/02/15 03:27:30;;;;;;;;;;;7.70;99.90;;;;;;4165347;28;20401;-49
2022/02/15 03:29:32;;;;;;;;;;;7.80;99.90;;;;;;4167210;28;19929;-50
2022/02/15 03:31:34;;;;;;;;;;;7.70;99.90;;;;;;4165003;28;20625;-50
2022/02/15 03:33:36;;;;;;;;;;;7.60;99.90;;;;;;4163578;28;19964;-52
2022/02/15 03:35:38;;;;;;;;;;;7.60;99.90;;;;;;4171588;28;20195;-51
2022/02/15 03:37:40;;;;;;;;;;;7.60;99.90;;;;;;4163399;28;20039;-52
2022/02/15 03:39:41;;;;;;;;;;;7.60;99.90;;;;;;4170031;28;20020;-49
2022/02/15 03:44:04;;;;;;;;;;;7.50;99.90;;;;;;4164216;28;19929;-50
2022/02/15 03:46:06;;;;;;;;;;;7.50;99.90;;;;;;4177429;28;19928;-50
2022/02/15 03:48:08;;;;;;;;;;;7.50;99.90;;;;;;4172561;28;19933;-49
2022/02/15 03:50:12;;;;;;;;;;;7.40;99.90;;;;;;4163854;28;20400;-49
2022/02/15 03:52:14;;;;;;;;;;;7.40;99.90;;;;;;4172170;28;19980;-49
2022/02/15 03:54:16;;;;;;;;;;;7.40;99.90;;;;;;4172102;28;20274;-49
2022/02/15 03:56:19;;;;;;;;;;;7.30;99.90;;;;;;4167768;28;19965;-48
2022/02/15 03:58:21;;;;;;;;;;;7.40;99.90;;;;;;4174261;28;19925;-51
2022/02/15 04:00:23;;;;;;;;;;;7.40;99.90;;;;;;4171582;28;19931;-52
2022/02/15 04:02:25;;;;;;;;;;;7.40;99.90;;;;;;4169134;28;19975;-48
2022/02/15 04:04:27;;;;;;;;;;;7.40;99.90;;;;;;4175845;28;19975;-49
2022/02/15 04:06:29;;;;;;;;;;;7.40;99.90;;;;;;4170584;28;19932;-50
2022/02/15 04:08:31;;;;;;;;;;;7.70;99.90;;;;;;4170420;28;19935;-47
2022/02/15 04:10:33;;;;;;;;;;;7.70;99.90;;;;;;4165809;28;19983;-51
2022/02/15 04:12:35;;;;;;;;;;;7.60;99.90;;;;;;4169524;28;20039;-50
2022/02/15 04:14:37;;;;;;;;;;;7.50;99.90;;;;;;4176542;28;19925;-49
2022/02/15 04:16:39;;;;;;;;;;;7.60;99.90;;;;;;4175843;28;19929;-51
2022/02/15 04:18:46;;;;;;;;;;;7.60;99.90;;;;;;4174321;28;19925;-50
2022/02/15 04:20:48;;;;;;;;;;;7.60;99.90;;;;;;4174440;28;20173;-50
2022/02/15 04:22:50;;;;;;;;;;;7.50;99.90;;;;;;4176413;28;19951;-47
2022/02/15 04:24:52;;;;;;;;;;;7.40;99.90;;;;;;4172459;28;19928;-47
2022/02/15 04:26:55;;;;;;;;;;;7.30;99.90;;;;;;4176450;28;19929;-50
2022/02/15 04:28:57;;;;;;;;;;;7.30;99.90;;;;;;4174251;28;19932;-48
2022/02/15 04:31:00;;;;;;;;;;;7.30;99.90;;;;;;4174418;28;19924;-49
2022/02/15 04:33:02;;;;;;;;;;;7.30;99.90;;;;;;4160927;28;19929;-49
2022/02/15 04:35:05;;;;;;;;;;;7.30;99.90;;;;;;4174277;28;19928;-47
2022/02/15 04:37:07;;;;;;;;;;;7.20;99.90;;;;;;4176494;28;19975;-47
2022/02/15 04:39:12;;;;;;;;;;;7.10;99.90;;;;;;4177297;28;20404;-49
2022/02/15 04:41:14;;;;;;;;;;;7.10;99.90;;;;;;4175901;28;20357;-47
2022/02/15 04:43:16;;;;;;;;;;;7.20;99.90;;;;;;4169272;28;19929;-48
2022/02/15 04:45:18;;;;;;;;;;;7.20;99.90;;;;;;4177221;28;19925;-47
2022/02/15 04:47:20;;;;;;;;;;;7.20;99.90;;;;;;4173717;28;20327;-47
2022/02/15 04:49:22;;;;;;;;;;;7.10;99.90;;;;;;4174923;28;20384;-47
2022/02/15 04:51:24;;;;;;;;;;;7.10;99.90;;;;;;4177178;28;19932;-49
2022/02/15 04:53:26;;;;;;;;;;;7.10;99.90;;;;;;4174245;28;19925;-46
2022/02/15 04:55:28;;;;;;;;;;;7.20;99.90;;;;;;4174539;28;21200;-47
2022/02/15 04:57:30;;;;;;;;;;;7.10;99.90;;;;;;4168619;28;19960;-50
2022/02/15 04:59:32;;;;;;;;;;;7.10;99.90;;;;;;4171148;28;19944;-48
2022/02/15 05:01:34;;;;;;;;;;;7.10;99.90;;;;;;4172928;28;19933;-49
2022/02/15 05:03:36;;;;;;;;;;;7.10;99.90;;;;;;4176087;28;20388;-49
2022/02/15 05:05:38;;;;;;;;;;;7.00;99.90;;;;;;4171332;28;19932;-51
2022/02/15 05:07:40;;;;;;;;;;;7.00;99.90;;;;;;4175411;28;19930;-47
2022/02/15 05:09:42;;;;;;;;;;;7.00;99.90;;;;;;4171430;28;19986;-47
2022/02/15 05:11:44;;;;;;;;;;;7.00;99.90;;;;;;4171673;28;19925;-50
2022/02/15 05:13:45;;;;;;;;;;;7.00;99.90;;;;;;4162781;28;19928;-48
2022/02/15 05:15:47;;;;;;;;;;;7.10;99.90;;;;;;4164814;28;20341;-50
2022/02/15 05:17:49;;;;;;;;;;;7.10;99.90;;;;;;4168068;28;19955;-47
2022/02/15 05:19:51;;;;;;;;;;;7.10;99.90;;;;;;4161889;28;19925;-49
2022/02/15 05:21:53;;;;;;;;;;;7.10;99.90;;;;;;4172601;28;19932;-49
2022/02/15 05:23:55;;;;;;;;;;;7.00;99.90;;;;;;4173438;28;20388;-50
2022/02/15 05:25:57;;;;;;;;;;;7.10;99.90;;;;;;4162465;28;19979;-49
2022/02/15 05:28:00;;;;;;;;;;;7.10;99.90;;;;;;4169535;28;19933;-48
2022/02/15 05:30:02;;;;;;;;;;;7.00;99.90;;;;;;4167510;28;19987;-47
2022/02/15 05:32:04;;;;;;;;;;;7.10;99.90;;;;;;4163200;28;19932;-50
2022/02/15 05:34:06;;;;;;;;;;;7.10;99.90;;;;;;4171761;28;19991;-49
2022/02/15 05:36:08;;;;;;;;;;;7.10;99.90;;;;;;4166505;28;20408;-48
2022/02/15 05:38:10;;;;;;;;;;;7.10;99.90;;;;;;4169022;28;19933;-49
2022/02/15 05:40:12;;;;;;;;;;;7.10;99.90;;;;;;4170243;28;20247;-48
2022/02/15 05:42:14;;;;;;;;;;;7.20;99.90;;;;;;4168403;28;19994;-51
2022/02/15 05:44:16;;;;;;;;;;;7.20;99.90;;;;;;4169896;28;19929;-48
2022/02/15 05:46:18;;;;;;;;;;;7.30;99.90;;;;;;4175294;28;19948;-47
2022/02/15 05:48:20;;;;;;;;;;;7.40;99.90;;;;;;4167349;28;19953;-50
2022/02/15 05:52:42;;;;;;;;;;;7.40;99.90;;;;;;4176919;28;19932;-51
2022/02/15 05:54:44;;;;;;;;;;;7.40;99.90;;;;;;4168709;28;20524;-50
2022/02/15 05:56:46;;;;;;;;;;;7.40;99.90;;;;;;4173340;28;19929;-47
2022/02/15 05:58:48;;;;;;;;;;;7.40;99.90;;;;;;4169150;28;19929;-49
2022/02/15 06:00:50;;;;;;;;;;;7.50;99.90;;;;;;4167017;28;19940;-46
2022/02/15 06:02:52;;;;;;;;;;;7.50;99.90;;;;;;4167109;28;19933;-47
2022/02/15 06:04:54;;;;;;;;;;;7.50;99.90;;;;;;4177384;28;19936;-47
2022/02/15 06:06:56;;;;;;;;;;;7.50;99.90;;;;;;4177346;28;19928;-46
2022/02/15 06:09:00;;;;;;;;;;;7.50;99.90;;;;;;4177481;28;20016;-48
2022/02/15 06:11:02;;;;;;;;;;;7.40;99.90;;;;;;4175632;28;20452;-47
2022/02/15 06:13:04;;;;;;;;;;;7.40;99.90;;;;;;4174713;28;19969;-50
2022/02/15 06:15:06;;;;;;;;;;;7.30;99.90;;;;;;4178783;28;19929;-49
2022/02/15 06:17:10;;;;;;;;;;;7.30;99.90;;;;;;4173452;28;20507;-51
2022/02/15 06:19:12;;;;;;;;;;;7.40;99.90;;;;;;4172207;28;19926;-53
2022/02/15 06:21:14;;;;;;;;;;;7.30;99.90;;;;;;4169696;28;20488;-50
2022/02/15 06:23:16;;;;;;;;;;;7.30;99.90;;;;;;4173015;28;19968;-53
2022/02/15 06:25:18;;;;;;;;;;;7.30;99.90;;;;;;4175987;28;20191;-53
2022/02/15 06:27:20;;;;;;;;;;;7.30;99.90;;;;;;4166517;28;19939;-52
2022/02/15 06:29:22;;;;;;;;;;;7.30;99.90;;;;;;4168283;28;20016;-54
2022/02/15 06:31:24;;;;;;;;;;;7.30;99.90;;;;;;4163502;28;19925;-54
2022/02/15 06:33:26;;;;;;;;;;;7.30;99.90;;;;;;4167391;28;20417;-53
2022/02/15 06:35:27;;;;;;;;;;;7.30;99.90;;;;;;4167708;28;19924;-53
2022/02/15 06:37:29;;;;;;;;;;;7.30;99.90;;;;;;4163564;28;20035;-54
2022/02/15 06:39:31;;;;;;;;;;;7.40;99.90;;;;;;4178311;28;20500;-53
2022/02/15 06:41:33;;;;;;;;;;;7.40;99.90;;;;;;4175852;28;19983;-53
2022/02/15 06:43:35;;;;;;;;;;;7.40;99.90;;;;;;4178965;28;20015;-53
2022/02/15 06:45:38;;;;;;;;;;;7.40;99.90;;;;;;4169700;28;19932;-54
2022/02/15 06:47:40;;;;;;;;;;;7.40;99.90;;;;;;4168731;28;19969;-52
2022/02/15 06:49:42;;;;;;;;;;;7.30;99.90;;;;;;4178740;28;19932;-52
2022/02/15 06:51:44;;;;;;;;;;;7.30;99.90;;;;;;4176837;28;19967;-51
2022/02/15 06:53:46;;;;;;;;;;;7.50;99.90;;;;;;4176020;28;19947;-54
2022/02/15 06:55:47;;;;;;;;;;;7.40;99.90;;;;;;4167050;28;19929;-53
2022/02/15 06:57:49;;;;;;;;;;;7.40;99.90;;;;;;4174006;28;19933;-54
2022/02/15 06:59:51;;;;;;;;;;;7.40;99.90;;;;;;4176484;28;19964;-54
2022/02/15 07:01:53;;;;;;;;;;;7.40;99.90;;;;;;4177605;28;19971;-53
2022/02/15 07:03:56;;;;;;;;;;;7.40;99.90;;;;;;4172718;28;19931;-53
2022/02/15 07:05:58;;;;;;;;;;;7.10;99.90;;;;;;4175216;28;20015;-51
2022/02/15 07:08:00;;;;;;;;;;;7.00;99.90;;;;;;4178281;28;19932;-51
2022/02/15 07:10:03;;;;;;;;;;;7.00;99.90;;;;;;4176467;28;20311;-50
2022/02/15 07:12:06;;;;;;;;;;;7.00;99.90;;;;;;4176097;28;20059;-50
2022/02/15 07:14:08;;;;;;;;;;;7.00;99.90;;;;;;4163969;28;19924;-51
2022/02/15 07:16:11;;;;;;;;;;;6.90;99.90;;;;;;4170375;28;19999;-52
2022/02/15 07:18:12;;;;;;;;;;;6.80;99.90;;;;;;4166436;28;19968;-51
2022/02/15 07:20:14;;;;;;;;;;;6.70;99.90;;;;;;4178201;28;19925;-53
2022/02/15 07:22:16;;;;;;;;;;;6.60;99.90;;;;;;4174944;28;20019;-53
2022/02/15 07:24:19;;;;;;;;;;;6.50;99.90;;;;;;4176810;28;20028;-53
2022/02/15 07:26:21;;;;;;;;;;;6.50;99.90;;;;;;4168464;28;19929;-53
2022/02/15 07:28:23;;;;;;;;;;;6.40;99.90;;;;;;4173803;28;20004;-52
2022/02/15 07:30:25;;;;;;;;;;;6.30;99.90;;;;;;4176461;28;19957;-53
2022/02/15 07:32:27;;;;;;;;;;;6.30;99.90;;;;;;4177699;28;19936;-52
2022/02/15 07:34:29;;;;;;;;;;;6.20;99.90;;;;;;4174974;28;19971;-51
2022/02/15 07:36:31;;;;;;;;;;;6.20;99.90;;;;;;4165686;28;19932;-50
2022/02/15 07:38:32;;;;;;;;;;;6.20;99.90;;;;;;4176410;28;19975;-52
2022/02/15 07:40:34;;;;;;;;;;;6.20;99.90;;;;;;4171566;28;19939;-52
2022/02/15 07:42:36;;;;;;;;;;;6.20;99.90;;;;;;4176520;28;20015;-50
2022/02/15 07:44:38;;;;;;;;;;;6.20;99.90;;;;;;4174039;28;19947;-51
2022/02/15 07:46:40;;;;;;;;;;;6.20;99.90;;;;;;4168503;28;20371;-52
2022/02/15 07:48:42;;;;;;;;;;;6.10;99.90;;;;;;4168708;28;19936;-52
2022/02/15 07:50:44;;;;;;;;;;;6.20;99.90;;;;;;4172672;28;19932;-51
2022/02/15 07:52:50;;;;;;;;;;;6.20;99.90;;;;;;4166289;28;21840;-51
2022/02/15 07:54:53;;;;;;;;;;;6.20;99.90;;;;;;4168541;28;20416;-49
2022/02/15 07:56:55;;;;;;;;;;;6.20;99.90;;;;;;4173682;28;19931;-51
2022/02/15 07:58:57;;;;;;;;;;;6.10;99.90;;;;;;4169387;28;20349;-50
2022/02/15 08:00:59;;;;;;;;;;;6.20;99.90;;;;;;4166123;28;19932;-51
2022/02/15 08:03:01;;;;;;;;;;;6.10;99.90;;;;;;4174601;28;20059;-52
2022/02/15 08:05:03;;;;;;;;;;;6.10;99.90;;;;;;4169435;28;19972;-53
2022/02/15 08:07:05;;;;;;;;;;;6.10;99.90;;;;;;4166807;28;20028;-51
2022/02/15 08:09:14;;;;;;;;;;;6.10;99.90;;;;;;4166781;28;19937;-51
2022/02/15 08:11:16;;;;;;;;;;;6.00;99.90;;;;;;4165794;28;20015;-53
2022/02/15 08:13:18;;;;;;;;;;;6.00;99.90;;;;;;4176070;28;19925;-53
2022/02/15 08:15:22;;;;;;;;;;;6.10;99.90;;;;;;4174060;28;19925;-53
2022/02/15 08:17:24;;;;;;;;;;;6.10;99.90;;;;;;4172182;28;19935;-52
2022/02/15 08:19:26;;;;;;;;;;;6.10;99.90;;;;;;4174488;28;19933;-52
2022/02/15 08:21:28;;;;;;;;;;;6.10;99.90;;;;;;4172541;28;20325;-53
2022/02/15 08:23:40;;;;;;;;;;;6.10;99.90;;;;;;4175747;28;19979;-52
2022/02/15 08:25:42;;;;;;;;;;;6.10;99.90;;;;;;4176850;28;19940;-51
2022/02/15 08:27:44;;;;;;;;;;;6.20;99.90;;;;;;4175489;28;20011;-52
2022/02/15 08:29:46;;;;;;;;;;;6.20;99.90;;;;;;4189620;28;19928;-53
2022/02/15 08:31:48;;;;;;;;;;;6.20;99.90;;;;;;4168864;28;19930;-52
2022/02/15 08:33:50;;;;;;;;;;;6.20;99.90;;;;;;4171813;28;19978;-52
2022/02/15 08:35:52;;;;;;;;;;;6.20;99.90;;;;;;4170541;28;19971;-52
2022/02/15 08:37:54;;;;;;;;;;;6.30;99.90;;;;;;4177283;28;19925;-53
2022/02/15 08:39:56;;;;;;;;;;;6.30;99.90;;;;;;4173085;28;20035;-53
2022/02/15 08:42:04;;;;;;;;;;;6.30;99.90;;;;;;4161878;28;19929;-53
2022/02/15 08:44:06;;;;;;;;;;;6.20;99.90;;;;;;4176704;28;19975;-51
2022/02/15 08:46:08;;;;;;;;;;;6.20;99.90;;;;;;4169576;28;19975;-52
2022/02/15 08:48:10;;;;;;;;;;;6.20;99.90;;;;;;4165059;28;19925;-52
2022/02/15 08:50:12;;;;;;;;;;;6.30;99.90;;;;;;4163007;28;19929;-52
2022/02/15 08:52:14;;;;;;;;;;;6.20;99.90;;;;;;4169106;28;19925;-53
2022/02/15 08:54:16;;;;;;;;;;;6.20;99.90;;;;;;4161331;28;19931;-53
2022/02/15 08:56:21;;;;;;;;;;;6.20;99.90;;;;;;4163269;28;19925;-52
2022/02/15 08:58:23;;;;;;;;;;;6.20;99.90;;;;;;4168807;28;19925;-52
2022/02/15 09:00:25;;;;;;;;;;;6.20;99.90;;;;;;4175481;28;19924;-52
2022/02/15 09:02:30;;;;;;;;;;;6.30;99.90;;;;;;4168600;28;19933;-53
2022/02/15 09:04:32;;;;;;;;;;;6.20;99.90;;;;;;4169069;28;20278;-52
2022/02/15 09:06:35;;;;;;;;;;;6.30;99.90;;;;;;4174410;28;19926;-51
2022/02/15 09:08:37;;;;;;;;;;;6.30;99.90;;;;;;4165982;28;20625;-52
2022/02/15 09:10:39;;;;;;;;;;;6.20;99.90;;;;;;4166359;28;20668;-52
2022/02/15 09:12:41;;;;;;;;;;;6.20;99.90;;;;;;4161479;28;19933;-54
2022/02/15 09:14:43;;;;;;;;;;;6.10;99.90;;;;;;4164330;28;19929;-53
2022/02/15 09:16:45;;;;;;;;;;;6.10;99.90;;;;;;4167749;28;19925;-53
2022/02/15 09:18:47;;;;;;;;;;;6.10;99.90;;;;;;4173188;28;19925;-52
2022/02/15 09:20:49;;;;;;;;;;;6.10;99.90;;;;;;4171760;28;19929;-53
2022/02/15 09:22:55;;;;;;;;;;;6.10;99.90;;;;;;4170397;28;20490;-52
2022/02/15 09:24:57;;;;;;;;;;;6.10;99.90;;;;;;4179803;28;19955;-53
2022/02/15 09:26:59;;;;;;;;;;;6.20;99.90;;;;;;4173533;28;20317;-53
2022/02/15 09:29:01;;;;;;;;;;;6.20;99.90;;;;;;4170288;28;19980;-52
2022/02/15 09:31:04;;;;;;;;;;;6.20;99.90;;;;;;4178500;28;19982;-52
2022/02/15 09:33:06;;;;;;;;;;;6.20;99.90;;;;;;4178162;28;20301;-53
2022/02/15 09:35:11;;;;;;;;;;;6.20;99.90;;;;;;4176953;28;19976;-52
2022/02/15 09:37:13;;;;;;;;;;;6.30;99.90;;;;;;4171432;28;19951;-52
2022/02/15 09:39:15;;;;;;;;;;;6.40;99.90;;;;;;4177095;28;19933;-53
2022/02/15 09:41:17;;;;;;;;;;;6.40;99.90;;;;;;4168739;28;20035;-54
2022/02/15 09:43:20;;;;;;;;;;;6.50;99.90;;;;;;4172507;28;20023;-52
2022/02/15 09:45:21;;;;;;;;;;;6.60;99.90;;;;;;4176140;28;20506;-52
2022/02/15 09:47:25;;;;;;;;;;;6.60;99.90;;;;;;4169622;28;19967;-52
2022/02/15 09:51:47;;;;;;;;;;;6.80;99.90;;;;;;4178534;28;20411;-53
2022/02/15 09:53:50;;;;;;;;;;;6.70;99.90;;;;;;4171729;28;19935;-53
2022/02/15 09:55:51;;;;;;;;;;;6.70;99.90;;;;;;4174484;28;19971;-52
2022/02/15 09:57:54;;;;;;;;;;;6.80;99.90;;;;;;4178059;28;19931;-52
2022/02/15 09:59:56;;;;;;;;;;;6.80;99.90;;;;;;4172900;28;19964;-51
2022/02/15 10:02:01;;;;;;;;;;;6.80;99.90;;;;;;4179993;28;19936;-51
2022/02/15 10:04:07;;;;;;;;;;;6.70;99.90;;;;;;4177468;28;19924;-52
2022/02/15 10:06:11;;;;;;;;;;;6.70;99.90;;;;;;4168274;28;20082;-52
2022/02/15 10:08:13;;;;;;;;;;;6.70;99.90;;;;;;4176942;28;20019;-53
2022/02/15 10:10:27;;;;;;;;;;;6.70;99.90;;;;;;4168809;28;19925;-51
2022/02/15 10:12:31;;;;;;;;;;;6.70;99.90;;;;;;4170916;28;19943;-51
2022/02/15 10:14:39;;;;;;;;;;;6.70;99.90;;;;;;4178927;28;19935;-52
2022/02/15 10:16:46;;;;;;;;;;;6.80;99.90;;;;;;4179169;28;20374;-53
2022/02/15 10:18:54;;;;;;;;;;;6.70;99.90;;;;;;4176694;28;20019;-52
2022/02/15 10:20:57;;;;;;;;;;;6.70;99.90;;;;;;4177486;28;19972;-52
2022/02/15 10:23:12;;;;;;;;;;;6.80;99.90;;;;;;4165438;28;19936;-52
2022/02/15 10:25:14;;;;;;;;;;;6.80;99.90;;;;;;4169368;28;20024;-52
2022/02/15 10:27:16;;;;;;;;;;;6.90;99.90;;;;;;4166819;28;19929;-53
2022/02/15 10:29:19;;;;;;;;;;;6.90;99.90;;;;;;4175946;28;20024;-51
2022/02/15 10:31:37;;;;;;;;;;;6.80;99.90;;;;;;4169984;28;20301;-52
2022/02/15 10:33:40;;;;;;;;;;;6.80;99.90;;;;;;4167193;28;19983;-52
2022/02/15 10:36:02;;;;;;;;;;;6.80;99.90;;;;;;4175053;28;19968;-53
2022/02/15 10:38:04;;;;;;;;;;;6.90;99.90;;;;;;4174252;28;19956;-54
2022/02/15 10:40:06;;;;;;;;;;;6.90;99.90;;;;;;4177166;28;20007;-53
2022/02/15 10:42:13;;;;;;;;;;;6.90;99.90;;;;;;4165587;28;19987;-53
2022/02/15 10:44:19;;;;;;;;;;;6.90;99.90;;;;;;4178114;28;20093;-53
2022/02/15 10:46:28;;;;;;;;;;;6.90;99.90;;;;;;4175779;28;19925;-52
2022/02/15 10:48:31;;;;;;;;;;;7.00;99.90;;;;;;4165898;28;19929;-53
2022/02/15 10:50:36;;;;;;;;;;;7.10;99.90;;;;;;4170548;28;20027;-52
2022/02/15 10:52:39;;;;;;;;;;;7.00;99.90;;;;;;4178215;28;20341;-52
2022/02/15 10:54:41;;;;;;;;;;;7.00;99.90;;;;;;4167551;28;20345;-53
2022/02/15 10:56:46;;;;;;;;;;;7.00;99.90;;;;;;4175270;28;20071;-52
2022/02/15 10:58:51;;;;;;;;;;;7.10;99.90;;;;;;4170736;28;19935;-53
2022/02/15 11:00:56;;;;;;;;;;;7.10;99.90;;;;;;4176793;28;19968;-52
2022/02/15 11:03:01;;;;;;;;;;;7.20;99.90;;;;;;4176174;28;20325;-52
2022/02/15 11:05:05;;;;;;;;;;;7.20;99.90;;;;;;4185938;28;19976;-53
2022/02/15 11:07:09;;;;;;;;;;;7.20;99.90;;;;;;4167272;28;19932;-53
2022/02/15 11:09:15;;;;;;;;;;;7.20;99.90;;;;;;4162504;28;19931;-53
2022/02/15 11:11:22;;;;;;;;;;;7.20;99.90;;;;;;4170960;28;19972;-53
2022/02/15 11:13:24;;;;;;;;;;;7.10;99.90;;;;;;4178472;28;19933;-52
2022/02/15 11:15:27;;;;;;;;;;;7.10;99.90;;;;;;4168167;28;19933;-53
2022/02/15 11:17:29;;;;;;;;;;;7.10;99.90;;;;;;4169453;28;19929;-53
2022/02/15 11:19:37;;;;;;;;;;;7.10;99.90;;;;;;4167829;28;19972;-54
2022/02/15 11:21:39;;;;;;;;;;;7.20;99.90;;;;;;4166532;28;20032;-53
2022/02/15 11:23:45;;;;;;;;;;;7.10;99.90;;;;;;4169128;28;20495;-52
2022/02/15 11:25:48;;;;;;;;;;;7.00;99.90;;;;;;4167994;28;20376;-54
2022/02/15 11:27:51;;;;;;;;;;;6.90;99.90;;;;;;4169078;28;20481;-53
2022/02/15 11:29:56;;;;;;;;;;;6.80;99.90;;;;;;4162125;28;20282;-52
2022/02/15 11:31:57;;;;;;;;;;;6.70;99.90;;;;;;4169240;28;19925;-53
2022/02/15 11:34:03;;;;;;;;;;;6.60;99.90;;;;;;4167490;28;20023;-51
2022/02/15 11:36:07;;;;;;;;;;;6.60;99.90;;;;;;4169365;28;19972;-53
2022/02/15 11:38:13;;;;;;;;;;;6.60;99.90;;;;;;4166057;28;20016;-52
2022/02/15 11:40:16;;;;;;;;;;;6.30;99.90;;;;;;4168372;28;19964;-54
2022/02/15 11:42:18;;;;;;;;;;;6.10;99.90;;;;;;4162958;28;19935;-53
2022/02/15 11:44:33;;;;;;;;;;;5.90;99.90;;;;;;4166273;28;19991;-52
2022/02/15 11:46:43;;;;;;;;;;;5.90;99.90;;;;;;4168741;28;19925;-53
2022/02/15 11:48:46;;;;;;;;;;;5.90;99.90;;;;;;4165117;28;19939;-53
2022/02/15 11:50:49;;;;;;;;;;;5.90;99.90;;;;;;4166068;28;19924;-52
2022/02/15 11:52:51;;;;;;;;;;;5.90;99.90;;;;;;4165869;28;20007;-52
2022/02/15 11:55:00;;;;;;;;;;;5.90;99.90;;;;;;4162808;28;19987;-52
2022/02/15 11:57:02;;;;;;;;;;;5.90;99.90;;;;;;4165875;28;20350;-53
2022/02/15 11:59:33;;;;;;;;;;;6.00;99.90;;;;;;4164433;28;20422;-52
2022/02/15 12:01:35;;;;;;;;;;;6.00;99.90;;;;;;4171015;28;19959;-52
2022/02/15 12:03:44;;;;;;;;;;;6.00;99.90;;;;;;4173134;28;20407;-53
2022/02/15 12:05:47;;;;;;;;;;;6.00;99.90;;;;;;4171541;28;20016;-52
2022/02/15 12:07:49;;;;;;;;;;;6.00;99.90;;;;;;4168383;28;20444;-52
2022/02/15 12:09:55;;;;;;;;;;;6.10;99.90;;;;;;4170540;28;19941;-53
2022/02/15 12:11:58;;;;;;;;;;;6.20;99.90;;;;;;4172839;28;19928;-53
2022/02/15 12:14:07;;;;;;;;;;;6.20;99.90;;;;;;4172381;28;19929;-52